sensor_id;sensor_type;location;lat;lon;timestamp;P1;durP1;ratioP1;P2;durP2;ratioP2
55756;SDS011;41676;44.610;44.078;2024-02-26T00:02:02;13.77;;;4.00;;
55756;SDS011;41676;44.610;44.078;2024-02-26T00:07:03;13.13;;;4.00;;
55756;SDS011;41676;44.610;44.078;2024-02-26T00:12:04;14.18;;;3.42;;
55756;SDS011;41676;44.610;44.078;2024-02-26T00:17:05;8.60;;;3.58;;
55756;SDS011;41676;44.610;44.078;2024-02-26T00:22:05;12.30;;;3.60;;
55756;SDS011;41676;44.610;44.078;2024-02-26T00:27:06;16.00;;;3.85;;
55756;SDS011;41676;44.610;44.078;2024-02-26T00:32:07;7.32;;;3.83;;
55756;SDS011;41676;44.610;44.078;2024-02-26T00:37:08;10.98;;;3.58;;
55756;SDS011;41676;44.610;44.078;2024-02-26T00:42:09;11.60;;;3.88;;
55756;SDS011;41676;44.610;44.078;2024-02-26T00:47:09;11.35;;;3.78;;
55756;SDS011;41676;44.610;44.078;2024-02-26T00:52:10;10.70;;;3.78;;
55756;SDS011;41676;44.610;44.078;2024-02-26T00:57:11;9.85;;;3.90;;
55756;SDS011;41676;44.610;44.078;2024-02-26T01:02:12;10.50;;;3.63;;
55756;SDS011;41676;44.610;44.078;2024-02-26T01:07:12;13.77;;;4.00;;
55756;SDS011;41676;44.610;44.078;2024-02-26T01:12:13;12.07;;;3.30;;
55756;SDS011;41676;44.610;44.078;2024-02-26T01:17:14;15.80;;;4.20;;
55756;SDS011;41676;44.610;44.078;2024-02-26T01:22:15;11.23;;;3.75;;
55756;SDS011;41676;44.610;44.078;2024-02-26T01:27:16;21.38;;;3.90;;
55756;SDS011;41676;44.610;44.078;2024-02-26T01:32:16;13.85;;;4.10;;
55756;SDS011;41676;44.610;44.078;2024-02-26T01:37:17;12.57;;;3.58;;
55756;SDS011;41676;44.610;44.078;2024-02-26T01:42:18;10.80;;;3.75;;
55756;SDS011;41676;44.610;44.078;2024-02-26T01:47:19;8.07;;;3.83;;
55756;SDS011;41676;44.610;44.078;2024-02-26T01:52:19;16.30;;;3.47;;
55756;SDS011;41676;44.610;44.078;2024-02-26T01:57:22;12.68;;;3.22;;
55756;SDS011;41676;44.610;44.078;2024-02-26T02:02:23;14.68;;;4.00;;
55756;SDS011;41676;44.610;44.078;2024-02-26T02:07:23;13.40;;;4.28;;
55756;SDS011;41676;44.610;44.078;2024-02-26T02:12:25;11.68;;;3.50;;
55756;SDS011;41676;44.610;44.078;2024-02-26T02:17:26;12.43;;;4.07;;
55756;SDS011;41676;44.610;44.078;2024-02-26T02:22:28;12.52;;;3.70;;
55756;SDS011;41676;44.610;44.078;2024-02-26T02:27:28;10.73;;;3.70;;
55756;SDS011;41676;44.610;44.078;2024-02-26T02:32:30;10.98;;;3.58;;
55756;SDS011;41676;44.610;44.078;2024-02-26T02:37:31;7.88;;;3.15;;
55756;SDS011;41676;44.610;44.078;2024-02-26T02:42:32;10.50;;;3.47;;
55756;SDS011;41676;44.610;44.078;2024-02-26T02:47:35;15.38;;;3.30;;
55756;SDS011;41676;44.610;44.078;2024-02-26T02:52:37;13.07;;;3.42;;
55756;SDS011;41676;44.610;44.078;2024-02-26T02:57:38;10.10;;;3.45;;
55756;SDS011;41676;44.610;44.078;2024-02-26T03:02:41;8.77;;;3.17;;
55756;SDS011;41676;44.610;44.078;2024-02-26T03:07:43;10.52;;;3.30;;
55756;SDS011;41676;44.610;44.078;2024-02-26T03:12:43;16.67;;;3.90;;
55756;SDS011;41676;44.610;44.078;2024-02-26T03:17:44;17.27;;;4.10;;
55756;SDS011;41676;44.610;44.078;2024-02-26T03:22:45;17.55;;;4.93;;
55756;SDS011;41676;44.610;44.078;2024-02-26T03:27:46;11.23;;;3.08;;
55756;SDS011;41676;44.610;44.078;2024-02-26T03:32:47;13.63;;;3.13;;
55756;SDS011;41676;44.610;44.078;2024-02-26T03:37:47;12.55;;;3.35;;
55756;SDS011;41676;44.610;44.078;2024-02-26T03:42:50;10.80;;;2.85;;
55756;SDS011;41676;44.610;44.078;2024-02-26T03:47:53;12.75;;;3.47;;
55756;SDS011;41676;44.610;44.078;2024-02-26T03:52:54;10.23;;;3.10;;
55756;SDS011;41676;44.610;44.078;2024-02-26T03:57:57;9.45;;;3.25;;
55756;SDS011;41676;44.610;44.078;2024-02-26T04:02:58;10.20;;;3.17;;
55756;SDS011;41676;44.610;44.078;2024-02-26T04:07:59;13.40;;;3.50;;
55756;SDS011;41676;44.610;44.078;2024-02-26T04:12:59;18.17;;;3.00;;
55756;SDS011;41676;44.610;44.078;2024-02-26T04:18:00;13.48;;;3.40;;
55756;SDS011;41676;44.610;44.078;2024-02-26T04:23:03;9.48;;;2.80;;
55756;SDS011;41676;44.610;44.078;2024-02-26T04:28:04;14.48;;;3.50;;
55756;SDS011;41676;44.610;44.078;2024-02-26T04:33:05;10.43;;;2.92;;
55756;SDS011;41676;44.610;44.078;2024-02-26T04:38:06;13.15;;;3.10;;
55756;SDS011;41676;44.610;44.078;2024-02-26T04:43:06;14.07;;;3.53;;
55756;SDS011;41676;44.610;44.078;2024-02-26T04:48:07;11.05;;;3.42;;
55756;SDS011;41676;44.610;44.078;2024-02-26T04:57:14;13.38;;;3.58;;
55756;SDS011;41676;44.610;44.078;2024-02-26T05:02:14;8.18;;;2.55;;
55756;SDS011;41676;44.610;44.078;2024-02-26T05:07:15;11.55;;;3.38;;
55756;SDS011;41676;44.610;44.078;2024-02-26T05:12:19;11.93;;;3.00;;
55756;SDS011;41676;44.610;44.078;2024-02-26T05:17:20;10.15;;;3.38;;
55756;SDS011;41676;44.610;44.078;2024-02-26T05:22:21;15.60;;;2.90;;
55756;SDS011;41676;44.610;44.078;2024-02-26T05:27:21;11.95;;;3.10;;
55756;SDS011;41676;44.610;44.078;2024-02-26T05:32:22;14.63;;;3.58;;
55756;SDS011;41676;44.610;44.078;2024-02-26T05:37:23;9.45;;;2.83;;
55756;SDS011;41676;44.610;44.078;2024-02-26T05:42:24;8.70;;;3.20;;
55756;SDS011;41676;44.610;44.078;2024-02-26T05:47:24;7.57;;;2.80;;
55756;SDS011;41676;44.610;44.078;2024-02-26T05:52:25;8.85;;;3.17;;
55756;SDS011;41676;44.610;44.078;2024-02-26T05:57:26;8.05;;;3.00;;
55756;SDS011;41676;44.610;44.078;2024-02-26T06:02:27;9.75;;;2.80;;
55756;SDS011;41676;44.610;44.078;2024-02-26T06:07:28;9.70;;;2.70;;
55756;SDS011;41676;44.610;44.078;2024-02-26T06:12:28;6.15;;;2.40;;
55756;SDS011;41676;44.610;44.078;2024-02-26T06:17:31;10.68;;;2.85;;
55756;SDS011;41676;44.610;44.078;2024-02-26T06:22:31;6.22;;;2.25;;
55756;SDS011;41676;44.610;44.078;2024-02-26T06:27:32;8.93;;;2.45;;
55756;SDS011;41676;44.610;44.078;2024-02-26T06:32:33;5.10;;;2.13;;
55756;SDS011;41676;44.610;44.078;2024-02-26T06:37:34;9.68;;;2.40;;
55756;SDS011;41676;44.610;44.078;2024-02-26T06:42:35;7.45;;;2.60;;
55756;SDS011;41676;44.610;44.078;2024-02-26T06:47:35;8.32;;;2.83;;
55756;SDS011;41676;44.610;44.078;2024-02-26T06:52:36;14.38;;;2.28;;
55756;SDS011;41676;44.610;44.078;2024-02-26T06:57:37;12.68;;;2.42;;
55756;SDS011;41676;44.610;44.078;2024-02-26T07:02:38;11.13;;;2.70;;
55756;SDS011;41676;44.610;44.078;2024-02-26T07:07:39;11.45;;;2.78;;
55756;SDS011;41676;44.610;44.078;2024-02-26T07:12:40;8.93;;;2.70;;
55756;SDS011;41676;44.610;44.078;2024-02-26T07:17:41;14.18;;;2.70;;
55756;SDS011;41676;44.610;44.078;2024-02-26T07:22:47;9.80;;;2.45;;
55756;SDS011;41676;44.610;44.078;2024-02-26T07:27:47;13.43;;;2.42;;
55756;SDS011;41676;44.610;44.078;2024-02-26T07:32:48;12.25;;;2.88;;
55756;SDS011;41676;44.610;44.078;2024-02-26T07:37:49;6.30;;;1.85;;
55756;SDS011;41676;44.610;44.078;2024-02-26T07:42:50;8.30;;;1.73;;
55756;SDS011;41676;44.610;44.078;2024-02-26T07:47:51;9.65;;;2.22;;
55756;SDS011;41676;44.610;44.078;2024-02-26T07:52:52;12.45;;;2.20;;
55756;SDS011;41676;44.610;44.078;2024-02-26T07:57:53;7.68;;;2.08;;
55756;SDS011;41676;44.610;44.078;2024-02-26T08:02:54;13.40;;;2.40;;
55756;SDS011;41676;44.610;44.078;2024-02-26T08:07:54;7.35;;;1.90;;
55756;SDS011;41676;44.610;44.078;2024-02-26T08:12:55;10.32;;;2.25;;
55756;SDS011;41676;44.610;44.078;2024-02-26T08:17:58;19.48;;;2.42;;
55756;SDS011;41676;44.610;44.078;2024-02-26T08:23:00;13.73;;;2.03;;
55756;SDS011;41676;44.610;44.078;2024-02-26T08:28:01;12.00;;;2.25;;
55756;SDS011;41676;44.610;44.078;2024-02-26T08:33:02;9.18;;;1.63;;
55756;SDS011;41676;44.610;44.078;2024-02-26T08:38:02;7.22;;;1.75;;
55756;SDS011;41676;44.610;44.078;2024-02-26T08:43:03;10.23;;;2.63;;
55756;SDS011;41676;44.610;44.078;2024-02-26T08:48:04;11.60;;;2.25;;
55756;SDS011;41676;44.610;44.078;2024-02-26T08:53:05;11.90;;;1.95;;
55756;SDS011;41676;44.610;44.078;2024-02-26T08:58:07;8.60;;;2.30;;
55756;SDS011;41676;44.610;44.078;2024-02-26T09:03:08;10.23;;;2.03;;
55756;SDS011;41676;44.610;44.078;2024-02-26T09:08:09;16.95;;;2.58;;
55756;SDS011;41676;44.610;44.078;2024-02-26T09:13:10;22.52;;;2.50;;
55756;SDS011;41676;44.610;44.078;2024-02-26T09:18:11;19.40;;;2.60;;
55756;SDS011;41676;44.610;44.078;2024-02-26T09:23:11;16.15;;;2.45;;
55756;SDS011;41676;44.610;44.078;2024-02-26T09:28:12;14.57;;;2.33;;
55756;SDS011;41676;44.610;44.078;2024-02-26T09:33:13;12.13;;;2.08;;
55756;SDS011;41676;44.610;44.078;2024-02-26T09:38:14;9.85;;;2.03;;
55756;SDS011;41676;44.610;44.078;2024-02-26T09:43:15;21.23;;;2.20;;
55756;SDS011;41676;44.610;44.078;2024-02-26T09:48:21;18.80;;;3.00;;
55756;SDS011;41676;44.610;44.078;2024-02-26T09:53:23;18.92;;;2.58;;
55756;SDS011;41676;44.610;44.078;2024-02-26T09:58:25;20.60;;;2.63;;
55756;SDS011;41676;44.610;44.078;2024-02-26T10:03:31;18.13;;;2.83;;
55756;SDS011;41676;44.610;44.078;2024-02-26T10:08:37;14.25;;;2.33;;
55756;SDS011;41676;44.610;44.078;2024-02-26T10:13:38;20.85;;;2.65;;
55756;SDS011;41676;44.610;44.078;2024-02-26T10:18:45;7.90;;;1.90;;
55756;SDS011;41676;44.610;44.078;2024-02-26T10:23:48;31.80;;;3.00;;
55756;SDS011;41676;44.610;44.078;2024-02-26T10:28:50;19.83;;;2.78;;
55756;SDS011;41676;44.610;44.078;2024-02-26T10:33:51;18.70;;;2.20;;
55756;SDS011;41676;44.610;44.078;2024-02-26T10:38:55;19.23;;;2.63;;
55756;SDS011;41676;44.610;44.078;2024-02-26T10:43:56;12.05;;;2.47;;
55756;SDS011;41676;44.610;44.078;2024-02-26T10:48:57;18.60;;;2.88;;
55756;SDS011;41676;44.610;44.078;2024-02-26T10:53:58;32.03;;;3.97;;
55756;SDS011;41676;44.610;44.078;2024-02-26T10:59:02;17.23;;;2.42;;
55756;SDS011;41676;44.610;44.078;2024-02-26T11:04:03;26.58;;;3.33;;
55756;SDS011;41676;44.610;44.078;2024-02-26T11:09:03;20.80;;;2.95;;
55756;SDS011;41676;44.610;44.078;2024-02-26T11:14:06;20.15;;;3.05;;
55756;SDS011;41676;44.610;44.078;2024-02-26T11:19:10;15.47;;;3.17;;
55756;SDS011;41676;44.610;44.078;2024-02-26T11:24:14;27.60;;;3.28;;
55756;SDS011;41676;44.610;44.078;2024-02-26T11:29:20;22.17;;;3.30;;
55756;SDS011;41676;44.610;44.078;2024-02-26T11:34:22;23.08;;;2.63;;
55756;SDS011;41676;44.610;44.078;2024-02-26T11:39:25;22.00;;;2.90;;
55756;SDS011;41676;44.610;44.078;2024-02-26T11:44:30;26.40;;;3.25;;
55756;SDS011;41676;44.610;44.078;2024-02-26T11:49:31;24.58;;;3.20;;
55756;SDS011;41676;44.610;44.078;2024-02-26T11:54:39;28.10;;;3.30;;
55756;SDS011;41676;44.610;44.078;2024-02-26T11:59:41;32.83;;;2.97;;
55756;SDS011;41676;44.610;44.078;2024-02-26T12:04:44;26.90;;;3.15;;
55756;SDS011;41676;44.610;44.078;2024-02-26T12:09:45;23.40;;;3.67;;
55756;SDS011;41676;44.610;44.078;2024-02-26T12:14:53;23.05;;;3.08;;
55756;SDS011;41676;44.610;44.078;2024-02-26T12:20:05;36.30;;;3.20;;
55756;SDS011;41676;44.610;44.078;2024-02-26T12:25:09;27.40;;;3.13;;
55756;SDS011;41676;44.610;44.078;2024-02-26T12:30:10;35.70;;;3.58;;
55756;SDS011;41676;44.610;44.078;2024-02-26T12:35:12;35.72;;;3.75;;
55756;SDS011;41676;44.610;44.078;2024-02-26T12:40:13;22.00;;;3.80;;
55756;SDS011;41676;44.610;44.078;2024-02-26T12:45:14;21.00;;;3.20;;
55756;SDS011;41676;44.610;44.078;2024-02-26T12:50:16;23.95;;;3.42;;
55756;SDS011;41676;44.610;44.078;2024-02-26T12:55:18;18.08;;;2.83;;
55756;SDS011;41676;44.610;44.078;2024-02-26T13:00:25;25.73;;;2.67;;
55756;SDS011;41676;44.610;44.078;2024-02-26T13:05:27;29.42;;;2.75;;
55756;SDS011;41676;44.610;44.078;2024-02-26T13:10:28;38.60;;;3.22;;
55756;SDS011;41676;44.610;44.078;2024-02-26T13:15:29;13.32;;;2.60;;
55756;SDS011;41676;44.610;44.078;2024-02-26T13:20:30;17.02;;;2.60;;
55756;SDS011;41676;44.610;44.078;2024-02-26T13:25:31;24.92;;;3.20;;
55756;SDS011;41676;44.610;44.078;2024-02-26T13:30:33;19.70;;;3.60;;
55756;SDS011;41676;44.610;44.078;2024-02-26T13:35:34;33.95;;;3.45;;
55756;SDS011;41676;44.610;44.078;2024-02-26T13:40:36;23.55;;;2.88;;
55756;SDS011;41676;44.610;44.078;2024-02-26T13:45:37;34.47;;;3.13;;
55756;SDS011;41676;44.610;44.078;2024-02-26T13:50:39;21.25;;;2.72;;
55756;SDS011;41676;44.610;44.078;2024-02-26T13:55:41;17.00;;;2.20;;
55756;SDS011;41676;44.610;44.078;2024-02-26T14:00:45;16.80;;;2.33;;
55756;SDS011;41676;44.610;44.078;2024-02-26T14:05:46;21.90;;;2.55;;
55756;SDS011;41676;44.610;44.078;2024-02-26T14:10:47;18.73;;;2.50;;
55756;SDS011;41676;44.610;44.078;2024-02-26T14:15:48;27.65;;;3.33;;
55756;SDS011;41676;44.610;44.078;2024-02-26T14:20:49;21.75;;;2.28;;
55756;SDS011;41676;44.610;44.078;2024-02-26T14:25:51;32.30;;;2.80;;
55756;SDS011;41676;44.610;44.078;2024-02-26T14:30:52;23.05;;;3.00;;
55756;SDS011;41676;44.610;44.078;2024-02-26T14:35:53;11.00;;;2.50;;
55756;SDS011;41676;44.610;44.078;2024-02-26T14:40:54;23.38;;;2.63;;
55756;SDS011;41676;44.610;44.078;2024-02-26T14:45:55;15.73;;;2.55;;
55756;SDS011;41676;44.610;44.078;2024-02-26T14:50:59;42.58;;;3.03;;
55756;SDS011;41676;44.610;44.078;2024-02-26T14:56:00;20.88;;;2.67;;
55756;SDS011;41676;44.610;44.078;2024-02-26T15:01:01;21.33;;;2.72;;
55756;SDS011;41676;44.610;44.078;2024-02-26T15:06:02;20.05;;;3.55;;
55756;SDS011;41676;44.610;44.078;2024-02-26T15:11:03;18.02;;;2.00;;
55756;SDS011;41676;44.610;44.078;2024-02-26T15:16:04;19.17;;;3.78;;
55756;SDS011;41676;44.610;44.078;2024-02-26T15:21:04;18.27;;;2.78;;
55756;SDS011;41676;44.610;44.078;2024-02-26T15:26:07;12.88;;;2.55;;
55756;SDS011;41676;44.610;44.078;2024-02-26T15:31:07;17.02;;;3.47;;
55756;SDS011;41676;44.610;44.078;2024-02-26T15:36:08;21.33;;;2.88;;
55756;SDS011;41676;44.610;44.078;2024-02-26T15:41:12;14.30;;;2.85;;
55756;SDS011;41676;44.610;44.078;2024-02-26T15:46:13;25.48;;;3.97;;
55756;SDS011;41676;44.610;44.078;2024-02-26T15:51:21;16.63;;;3.55;;
55756;SDS011;41676;44.610;44.078;2024-02-26T15:56:24;17.92;;;3.70;;
55756;SDS011;41676;44.610;44.078;2024-02-26T16:01:26;20.20;;;3.85;;
55756;SDS011;41676;44.610;44.078;2024-02-26T16:06:38;26.70;;;4.20;;
55756;SDS011;41676;44.610;44.078;2024-02-26T16:11:42;24.33;;;3.33;;
55756;SDS011;41676;44.610;44.078;2024-02-26T16:16:49;18.38;;;3.78;;
55756;SDS011;41676;44.610;44.078;2024-02-26T16:21:53;23.33;;;4.15;;
55756;SDS011;41676;44.610;44.078;2024-02-26T16:26:54;17.80;;;3.80;;
55756;SDS011;41676;44.610;44.078;2024-02-26T16:31:55;22.65;;;4.47;;
55756;SDS011;41676;44.610;44.078;2024-02-26T16:36:56;20.65;;;4.65;;
55756;SDS011;41676;44.610;44.078;2024-02-26T16:41:56;22.27;;;3.92;;
55756;SDS011;41676;44.610;44.078;2024-02-26T16:46:57;18.83;;;4.10;;
55756;SDS011;41676;44.610;44.078;2024-02-26T16:51:58;20.75;;;4.10;;
55756;SDS011;41676;44.610;44.078;2024-02-26T16:56:59;20.88;;;4.63;;
55756;SDS011;41676;44.610;44.078;2024-02-26T17:02:00;17.35;;;4.47;;
55756;SDS011;41676;44.610;44.078;2024-02-26T17:07:01;15.88;;;4.05;;
55756;SDS011;41676;44.610;44.078;2024-02-26T17:12:02;23.20;;;4.00;;
55756;SDS011;41676;44.610;44.078;2024-02-26T17:17:03;23.23;;;4.22;;
55756;SDS011;41676;44.610;44.078;2024-02-26T17:22:04;19.45;;;4.25;;
55756;SDS011;41676;44.610;44.078;2024-02-26T17:27:05;28.13;;;5.03;;
55756;SDS011;41676;44.610;44.078;2024-02-26T17:32:06;18.63;;;4.95;;
55756;SDS011;41676;44.610;44.078;2024-02-26T17:37:07;15.00;;;4.47;;
55756;SDS011;41676;44.610;44.078;2024-02-26T17:42:08;21.55;;;4.95;;
55756;SDS011;41676;44.610;44.078;2024-02-26T17:47:08;15.32;;;4.32;;
55756;SDS011;41676;44.610;44.078;2024-02-26T17:52:09;15.35;;;4.68;;
55756;SDS011;41676;44.610;44.078;2024-02-26T17:57:10;19.95;;;4.22;;
55756;SDS011;41676;44.610;44.078;2024-02-26T18:02:11;10.63;;;4.43;;
55756;SDS011;41676;44.610;44.078;2024-02-26T18:07:12;16.95;;;4.75;;
55756;SDS011;41676;44.610;44.078;2024-02-26T18:12:13;21.63;;;4.80;;
55756;SDS011;41676;44.610;44.078;2024-02-26T18:17:14;17.83;;;4.18;;
55756;SDS011;41676;44.610;44.078;2024-02-26T18:22:15;19.98;;;4.75;;
55756;SDS011;41676;44.610;44.078;2024-02-26T18:27:16;20.45;;;4.18;;
55756;SDS011;41676;44.610;44.078;2024-02-26T18:32:16;16.27;;;4.43;;
55756;SDS011;41676;44.610;44.078;2024-02-26T18:37:18;18.50;;;5.85;;
55756;SDS011;41676;44.610;44.078;2024-02-26T18:42:18;21.50;;;7.50;;
55756;SDS011;41676;44.610;44.078;2024-02-26T18:47:19;30.77;;;8.45;;
55756;SDS011;41676;44.610;44.078;2024-02-26T18:52:23;14.63;;;5.18;;
55756;SDS011;41676;44.610;44.078;2024-02-26T18:57:24;14.77;;;4.60;;
55756;SDS011;41676;44.610;44.078;2024-02-26T19:02:24;10.70;;;4.22;;
55756;SDS011;41676;44.610;44.078;2024-02-26T19:07:28;21.85;;;4.57;;
55756;SDS011;41676;44.610;44.078;2024-02-26T19:12:29;17.73;;;4.45;;
55756;SDS011;41676;44.610;44.078;2024-02-26T19:17:30;16.02;;;4.63;;
55756;SDS011;41676;44.610;44.078;2024-02-26T19:22:31;20.77;;;5.63;;
55756;SDS011;41676;44.610;44.078;2024-02-26T19:27:31;16.40;;;4.72;;
55756;SDS011;41676;44.610;44.078;2024-02-26T19:32:32;13.90;;;4.85;;
55756;SDS011;41676;44.610;44.078;2024-02-26T19:37:33;16.60;;;4.40;;
55756;SDS011;41676;44.610;44.078;2024-02-26T19:42:34;18.67;;;4.65;;
55756;SDS011;41676;44.610;44.078;2024-02-26T19:47:35;19.42;;;4.90;;
55756;SDS011;41676;44.610;44.078;2024-02-26T19:52:39;12.82;;;5.30;;
55756;SDS011;41676;44.610;44.078;2024-02-26T19:57:40;14.13;;;3.92;;
55756;SDS011;41676;44.610;44.078;2024-02-26T20:02:40;14.33;;;4.83;;
55756;SDS011;41676;44.610;44.078;2024-02-26T20:07:41;17.30;;;4.63;;
55756;SDS011;41676;44.610;44.078;2024-02-26T20:12:42;14.18;;;4.22;;
55756;SDS011;41676;44.610;44.078;2024-02-26T20:17:43;15.32;;;4.25;;
55756;SDS011;41676;44.610;44.078;2024-02-26T20:22:44;20.83;;;4.60;;
55756;SDS011;41676;44.610;44.078;2024-02-26T20:27:45;16.23;;;4.30;;
55756;SDS011;41676;44.610;44.078;2024-02-26T20:32:46;19.08;;;4.75;;
55756;SDS011;41676;44.610;44.078;2024-02-26T20:37:47;22.48;;;5.18;;
55756;SDS011;41676;44.610;44.078;2024-02-26T20:42:48;11.98;;;4.38;;
55756;SDS011;41676;44.610;44.078;2024-02-26T20:47:49;23.60;;;6.20;;
55756;SDS011;41676;44.610;44.078;2024-02-26T20:52:51;16.65;;;5.40;;
55756;SDS011;41676;44.610;44.078;2024-02-26T20:57:52;26.98;;;7.13;;
55756;SDS011;41676;44.610;44.078;2024-02-26T21:02:52;26.05;;;7.55;;
55756;SDS011;41676;44.610;44.078;2024-02-26T21:07:53;24.55;;;8.23;;
55756;SDS011;41676;44.610;44.078;2024-02-26T21:12:54;18.73;;;5.28;;
55756;SDS011;41676;44.610;44.078;2024-02-26T21:17:58;18.67;;;4.32;;
55756;SDS011;41676;44.610;44.078;2024-02-26T21:22:59;21.25;;;5.10;;
55756;SDS011;41676;44.610;44.078;2024-02-26T21:27:59;13.27;;;4.45;;
55756;SDS011;41676;44.610;44.078;2024-02-26T21:33:02;14.90;;;4.25;;
55756;SDS011;41676;44.610;44.078;2024-02-26T21:38:03;24.45;;;6.80;;
55756;SDS011;41676;44.610;44.078;2024-02-26T21:43:05;21.58;;;5.15;;
55756;SDS011;41676;44.610;44.078;2024-02-26T21:48:06;19.45;;;4.88;;
55756;SDS011;41676;44.610;44.078;2024-02-26T21:53:07;22.48;;;5.00;;
55756;SDS011;41676;44.610;44.078;2024-02-26T21:58:08;19.23;;;5.32;;
55756;SDS011;41676;44.610;44.078;2024-02-26T22:03:09;11.60;;;4.20;;
55756;SDS011;41676;44.610;44.078;2024-02-26T22:08:10;17.15;;;4.72;;
55756;SDS011;41676;44.610;44.078;2024-02-26T22:13:10;12.73;;;4.05;;
55756;SDS011;41676;44.610;44.078;2024-02-26T22:18:11;17.92;;;4.13;;
55756;SDS011;41676;44.610;44.078;2024-02-26T22:23:13;16.30;;;4.55;;
55756;SDS011;41676;44.610;44.078;2024-02-26T22:28:13;25.38;;;5.18;;
55756;SDS011;41676;44.610;44.078;2024-02-26T22:33:14;19.08;;;4.07;;
55756;SDS011;41676;44.610;44.078;2024-02-26T22:38:15;21.90;;;4.18;;
55756;SDS011;41676;44.610;44.078;2024-02-26T22:43:17;15.70;;;4.32;;
55756;SDS011;41676;44.610;44.078;2024-02-26T22:48:18;15.90;;;4.32;;
55756;SDS011;41676;44.610;44.078;2024-02-26T22:53:20;23.13;;;5.07;;
55756;SDS011;41676;44.610;44.078;2024-02-26T22:58:21;16.75;;;4.50;;
55756;SDS011;41676;44.610;44.078;2024-02-26T23:03:22;19.73;;;4.63;;
55756;SDS011;41676;44.610;44.078;2024-02-26T23:08:23;19.02;;;4.82;;
55756;SDS011;41676;44.610;44.078;2024-02-26T23:13:24;18.02;;;4.03;;
55756;SDS011;41676;44.610;44.078;2024-02-26T23:18:24;30.95;;;4.60;;
55756;SDS011;41676;44.610;44.078;2024-02-26T23:23:25;16.48;;;4.63;;
55756;SDS011;41676;44.610;44.078;2024-02-26T23:28:26;20.27;;;4.75;;
55756;SDS011;41676;44.610;44.078;2024-02-26T23:33:27;16.92;;;4.50;;
55756;SDS011;41676;44.610;44.078;2024-02-26T23:38:27;12.57;;;4.65;;
55756;SDS011;41676;44.610;44.078;2024-02-26T23:43:28;23.17;;;4.97;;
55756;SDS011;41676;44.610;44.078;2024-02-26T23:48:29;19.00;;;4.07;;
55756;SDS011;41676;44.610;44.078;2024-02-26T23:53:30;18.05;;;4.50;;
55756;SDS011;41676;44.610;44.078;2024-02-26T23:58:31;22.63;;;5.63;;
